createdAt,value
2023-09-09T00:00:37.637Z,10.32
2023-09-09T00:01:39.217Z,10.15
2023-09-09T00:02:40.960Z,9.60
2023-09-09T00:03:43.126Z,10.15
2023-09-09T00:04:45.116Z,10.18
2023-09-09T00:05:46.915Z,10.63
2023-09-09T00:06:48.603Z,9.63
2023-09-09T00:07:50.318Z,9.85
2023-09-09T00:08:52.045Z,10.05
2023-09-09T00:09:53.691Z,9.93
2023-09-09T00:10:55.369Z,8.90
2023-09-09T00:11:57.264Z,9.40
2023-09-09T00:12:58.989Z,9.75
2023-09-09T00:14:00.665Z,9.82
2023-09-09T00:15:02.290Z,9.95
2023-09-09T00:16:05.438Z,9.48
2023-09-09T00:17:07.456Z,9.20
2023-09-09T00:18:09.096Z,9.82
2023-09-09T00:19:10.734Z,9.18
2023-09-09T00:20:15.598Z,9.85
2023-09-09T00:21:17.265Z,9.65
2023-09-09T00:22:18.894Z,9.63
2023-09-09T00:23:20.500Z,9.88
2023-09-09T00:24:22.197Z,10.05
2023-09-09T00:25:23.998Z,10.18
2023-09-09T00:26:25.587Z,9.80
2023-09-09T00:27:27.753Z,9.05
2023-09-09T00:28:29.326Z,9.15
2023-09-09T00:29:30.899Z,9.85
2023-09-09T00:30:32.815Z,9.38
2023-09-09T00:31:35.796Z,9.30
2023-09-09T00:32:37.449Z,10.10
2023-09-09T00:33:39.326Z,9.30
2023-09-09T00:34:41.285Z,10.35
2023-09-09T00:35:43.214Z,10.93
2023-09-09T00:36:44.809Z,8.60
2023-09-09T00:37:46.740Z,10.10
2023-09-09T00:38:48.327Z,9.50
2023-09-09T00:39:50.134Z,10.82
2023-09-09T00:41:10.809Z,10.68
2023-09-09T00:42:12.507Z,10.25
2023-09-09T00:43:14.506Z,10.23
2023-09-09T00:44:16.093Z,10.10
2023-09-09T00:45:17.952Z,10.40
2023-09-09T00:46:19.897Z,10.20
2023-09-09T00:47:25.718Z,9.82
2023-09-09T00:48:27.763Z,10.23
2023-09-09T00:49:29.426Z,9.88
2023-09-09T00:50:31.179Z,10.27
2023-09-09T00:51:32.909Z,10.80
2023-09-09T00:52:35.363Z,10.95
2023-09-09T00:53:37.783Z,10.27
2023-09-09T00:54:39.751Z,11.43
2023-09-09T00:55:43.010Z,11.13
2023-09-09T00:56:44.606Z,11.85
2023-09-09T00:57:46.365Z,11.85
2023-09-09T00:58:48.026Z,13.00
2023-09-09T00:59:49.701Z,12.40
2023-09-09T01:00:51.323Z,11.38
2023-09-09T01:01:53.428Z,12.75
2023-09-09T01:02:56.496Z,13.20
2023-09-09T01:03:59.261Z,15.70
2023-09-09T01:05:01.561Z,16.65
2023-09-09T01:06:04.442Z,19.02
2023-09-09T01:07:06.404Z,15.82
2023-09-09T01:08:08.455Z,18.92
2023-09-09T01:09:10.174Z,16.67
2023-09-09T01:10:12.251Z,17.77
2023-09-09T01:11:13.841Z,19.23
2023-09-09T01:12:15.489Z,17.42
2023-09-09T01:13:17.096Z,16.42
2023-09-09T01:14:18.969Z,16.20
2023-09-09T01:15:20.822Z,16.08
2023-09-09T01:16:23.028Z,16.08
2023-09-09T01:17:24.926Z,13.93
2023-09-09T01:18:28.109Z,13.98
2023-09-09T01:19:30.144Z,14.65
2023-09-09T01:20:36.971Z,14.75
2023-09-09T01:21:42.539Z,14.10
2023-09-09T01:22:46.891Z,12.43
2023-09-09T01:23:48.694Z,12.73
2023-09-09T01:24:50.327Z,12.80
2023-09-09T01:25:51.880Z,13.90
2023-09-09T01:26:53.554Z,13.23
2023-09-09T01:27:55.216Z,13.77
2023-09-09T01:28:56.788Z,13.07
2023-09-09T01:29:58.559Z,12.63
2023-09-09T01:31:00.282Z,12.48
2023-09-09T01:32:01.993Z,14.55
2023-09-09T01:33:04.186Z,13.48
2023-09-09T01:34:06.108Z,13.27
2023-09-09T01:35:08.316Z,13.77
2023-09-09T01:36:10.011Z,15.15
2023-09-09T01:37:11.713Z,14.35
2023-09-09T01:38:14.914Z,14.48
2023-09-09T01:39:16.697Z,14.80
2023-09-09T01:40:18.785Z,13.95
2023-09-09T01:41:20.440Z,13.75
2023-09-09T01:42:22.118Z,14.40
2023-09-09T01:43:23.724Z,13.15
2023-09-09T01:44:25.394Z,13.07
2023-09-09T01:45:26.984Z,13.02
2023-09-09T01:46:28.679Z,13.00
2023-09-09T01:47:30.322Z,13.30
2023-09-09T01:48:32.137Z,12.48
2023-09-09T01:49:33.786Z,13.10
2023-09-09T01:50:35.392Z,12.48
2023-09-09T01:51:37.092Z,13.07
2023-09-09T01:52:38.719Z,12.63
2023-09-09T01:53:41.777Z,11.75
2023-09-09T01:54:43.618Z,11.60
2023-09-09T01:55:45.340Z,12.13
2023-09-09T01:56:46.931Z,12.40
2023-09-09T01:57:48.615Z,12.48
2023-09-09T01:58:50.726Z,12.73
2023-09-09T01:59:52.331Z,12.75
2023-09-09T02:00:53.925Z,12.75
2023-09-09T02:01:55.543Z,12.05
2023-09-09T02:02:57.420Z,11.63
2023-09-09T02:03:59.181Z,11.80
2023-09-09T02:05:01.051Z,11.25
2023-09-09T02:06:02.713Z,11.93
2023-09-09T02:07:04.704Z,12.27
2023-09-09T02:08:06.763Z,11.93
2023-09-09T02:09:09.691Z,14.50
2023-09-09T02:10:13.861Z,12.95
2023-09-09T02:11:15.768Z,13.77
2023-09-09T02:12:17.485Z,13.65
2023-09-09T02:13:19.490Z,14.27
2023-09-09T02:14:21.093Z,14.43
2023-09-09T02:15:22.817Z,13.88
2023-09-09T02:16:24.472Z,16.27
2023-09-09T02:17:26.381Z,19.58
2023-09-09T02:18:28.068Z,20.55
2023-09-09T02:19:29.733Z,23.08
2023-09-09T02:20:31.900Z,22.20
2023-09-09T02:21:33.481Z,21.40
2023-09-09T02:22:35.193Z,18.80
2023-09-09T02:23:40.262Z,21.52
2023-09-09T02:24:43.528Z,19.08
2023-09-09T02:25:45.196Z,19.45
2023-09-09T02:26:46.875Z,18.35
2023-09-09T02:27:48.505Z,17.80
2023-09-09T02:28:50.148Z,16.77
2023-09-09T02:29:51.839Z,16.20
2023-09-09T02:30:53.687Z,19.23
2023-09-09T02:31:55.506Z,14.68
2023-09-09T02:32:57.946Z,16.00
2023-09-09T02:34:00.572Z,14.23
2023-09-09T02:35:02.370Z,13.48
2023-09-09T02:36:04.527Z,14.40
2023-09-09T02:37:13.488Z,13.73
2023-09-09T02:38:15.140Z,13.48
2023-09-09T02:39:16.754Z,12.40
2023-09-09T02:40:19.799Z,12.60
2023-09-09T02:41:21.622Z,13.48
2023-09-09T02:42:24.610Z,12.63
2023-09-09T02:43:26.324Z,13.75
2023-09-09T02:44:27.955Z,13.05
2023-09-09T02:45:29.723Z,12.27
2023-09-09T02:46:31.380Z,13.35
2023-09-09T02:47:33.137Z,13.05
2023-09-09T02:48:34.712Z,12.35
2023-09-09T02:49:36.662Z,11.82
2023-09-09T02:50:39.109Z,11.63
2023-09-09T02:51:41.351Z,12.82
2023-09-09T02:52:43.030Z,13.00
2023-09-09T02:53:44.961Z,12.38
2023-09-09T02:54:46.662Z,12.27
2023-09-09T02:55:49.802Z,11.90
2023-09-09T02:56:51.394Z,13.00
2023-09-09T02:57:52.989Z,12.77
2023-09-09T02:58:54.616Z,14.35
2023-09-09T02:59:56.189Z,14.00
2023-09-09T03:01:04.044Z,14.20
2023-09-09T03:02:08.799Z,13.70
2023-09-09T03:03:11.727Z,14.48
2023-09-09T03:04:13.961Z,13.88
2023-09-09T03:05:17.024Z,12.68
2023-09-09T03:06:18.743Z,11.95
2023-09-09T03:07:20.821Z,12.70
2023-09-09T03:08:22.419Z,12.40
2023-09-09T03:09:24.101Z,12.82
2023-09-09T03:10:26.133Z,12.18
2023-09-09T03:11:29.067Z,11.32
2023-09-09T03:12:30.740Z,13.95
2023-09-09T03:13:32.466Z,13.95
2023-09-09T03:14:34.244Z,12.48
2023-09-09T03:15:35.872Z,12.77
2023-09-09T03:16:38.976Z,13.20
2023-09-09T03:17:40.693Z,13.30
2023-09-09T03:18:42.479Z,12.68
2023-09-09T03:19:44.458Z,13.88
2023-09-09T03:20:46.305Z,13.30
2023-09-09T03:21:47.894Z,12.65
2023-09-09T03:22:49.547Z,13.30
2023-09-09T03:23:51.132Z,13.05
2023-09-09T03:24:52.746Z,13.10
2023-09-09T03:25:54.459Z,13.60
2023-09-09T03:26:57.493Z,13.38
2023-09-09T03:27:59.373Z,13.65
2023-09-09T03:29:01.134Z,14.00
2023-09-09T03:30:03.402Z,13.40
2023-09-09T03:31:05.049Z,13.52
2023-09-09T03:32:06.945Z,11.52
2023-09-09T03:33:08.601Z,12.00
2023-09-09T03:34:10.907Z,11.15
2023-09-09T03:35:12.657Z,11.55
2023-09-09T03:36:14.442Z,12.48
2023-09-09T03:37:16.271Z,12.00
2023-09-09T03:38:18.089Z,12.75
2023-09-09T03:39:19.672Z,12.50
2023-09-09T03:40:21.233Z,12.57
2023-09-09T03:41:23.032Z,12.63
2023-09-09T03:42:25.973Z,12.02
2023-09-09T03:43:27.670Z,11.68
2023-09-09T03:44:29.307Z,13.23
2023-09-09T03:45:30.922Z,13.25
2023-09-09T03:46:32.634Z,12.02
2023-09-09T03:47:35.455Z,11.80
2023-09-09T03:48:37.203Z,12.63
2023-09-09T03:49:38.873Z,13.45
2023-09-09T03:50:40.533Z,12.65
2023-09-09T03:51:42.472Z,13.63
2023-09-09T03:52:44.340Z,12.25
2023-09-09T03:53:46.051Z,13.38
2023-09-09T03:54:47.738Z,11.80
2023-09-09T03:55:49.396Z,12.95
2023-09-09T03:56:51.045Z,13.20
2023-09-09T03:57:54.456Z,12.63
2023-09-09T03:58:56.145Z,13.07
2023-09-09T03:59:57.769Z,12.98
2023-09-09T04:01:04.013Z,13.57
2023-09-09T04:02:06.113Z,12.50
2023-09-09T04:03:07.795Z,12.75
2023-09-09T04:04:09.693Z,12.15
2023-09-09T04:05:11.942Z,12.60
2023-09-09T04:06:14.090Z,13.88
2023-09-09T04:08:18.954Z,13.13
2023-09-09T04:09:20.636Z,13.45
2023-09-09T04:10:22.482Z,12.80
2023-09-09T04:11:24.506Z,12.98
2023-09-09T04:12:26.158Z,12.60
2023-09-09T04:13:29.031Z,12.73
2023-09-09T04:14:30.682Z,12.73
2023-09-09T04:15:32.334Z,12.02
2023-09-09T04:16:33.941Z,13.18
2023-09-09T04:17:35.701Z,14.27
2023-09-09T04:18:46.562Z,13.10
2023-09-09T04:19:51.528Z,12.68
2023-09-09T04:20:53.431Z,13.10
2023-09-09T04:21:55.156Z,13.45
2023-09-09T04:22:56.767Z,13.40
2023-09-09T04:23:58.335Z,13.32
2023-09-09T04:24:59.902Z,13.40
2023-09-09T04:26:01.980Z,14.13
2023-09-09T04:27:04.029Z,13.73
2023-09-09T04:28:06.677Z,13.57
2023-09-09T04:29:09.694Z,14.27
2023-09-09T04:30:12.668Z,14.23
2023-09-09T04:31:14.449Z,13.30
2023-09-09T04:32:17.612Z,12.10
2023-09-09T04:33:19.291Z,12.90
2023-09-09T04:34:22.212Z,13.48
2023-09-09T04:35:23.819Z,13.98
2023-09-09T04:36:25.643Z,14.70
2023-09-09T04:37:27.321Z,12.30
2023-09-09T04:38:28.998Z,12.93
2023-09-09T04:39:30.679Z,13.07
2023-09-09T04:40:32.388Z,13.23
2023-09-09T04:41:34.017Z,12.15
2023-09-09T04:42:35.965Z,13.02
2023-09-09T04:43:37.974Z,12.95
2023-09-09T04:44:41.540Z,12.43
2023-09-09T04:45:43.231Z,11.93
2023-09-09T04:46:44.925Z,12.45
2023-09-09T04:47:46.786Z,12.60
2023-09-09T04:48:52.766Z,13.27
2023-09-09T04:49:54.405Z,11.50
2023-09-09T04:50:56.243Z,11.77
2023-09-09T04:51:57.921Z,13.50
2023-09-09T04:52:59.460Z,13.00
2023-09-09T04:54:01.041Z,12.30
2023-09-09T04:55:02.737Z,13.15
2023-09-09T04:56:04.547Z,13.90
2023-09-09T04:57:06.363Z,14.10
2023-09-09T04:58:09.283Z,12.90
2023-09-09T04:59:10.994Z,12.43
2023-09-09T05:00:14.498Z,12.73
2023-09-09T05:01:16.576Z,12.57
2023-09-09T05:02:18.319Z,13.45
2023-09-09T05:03:20.225Z,13.32
2023-09-09T05:04:21.981Z,13.18
2023-09-09T05:05:23.773Z,13.95
2023-09-09T05:06:25.403Z,12.55
2023-09-09T05:07:27.015Z,13.00
2023-09-09T05:08:28.666Z,12.95
2023-09-09T05:09:30.399Z,12.65
2023-09-09T05:10:32.008Z,12.80
2023-09-09T05:11:33.715Z,12.70
2023-09-09T05:12:35.847Z,12.52
2023-09-09T05:13:37.703Z,12.63
2023-09-09T05:14:39.488Z,12.05
2023-09-09T05:15:43.214Z,12.52
2023-09-09T05:16:44.914Z,12.55
2023-09-09T05:17:46.628Z,12.23
2023-09-09T05:18:48.345Z,14.10
2023-09-09T05:19:50.009Z,12.35
2023-09-09T05:20:51.823Z,12.68
2023-09-09T05:21:54.246Z,12.55
2023-09-09T05:22:55.874Z,12.02
2023-09-09T05:23:57.601Z,12.50
2023-09-09T05:24:59.186Z,12.38
2023-09-09T05:26:00.902Z,13.45
2023-09-09T05:27:02.703Z,13.65
2023-09-09T05:28:05.032Z,12.65
2023-09-09T05:29:06.997Z,12.93
2023-09-09T05:30:08.957Z,13.00
2023-09-09T05:31:12.032Z,12.98
2023-09-09T05:32:13.726Z,11.80
2023-09-09T05:33:15.526Z,13.38
2023-09-09T05:34:17.207Z,13.27
2023-09-09T05:35:19.089Z,13.23
2023-09-09T05:36:21.018Z,13.50
2023-09-09T05:37:22.681Z,12.73
2023-09-09T05:38:24.364Z,12.63
2023-09-09T05:39:26.147Z,12.30
2023-09-09T05:40:27.829Z,12.93
2023-09-09T05:41:29.863Z,13.68
2023-09-09T05:42:32.121Z,13.00
2023-09-09T05:43:33.877Z,13.30
2023-09-09T05:44:35.980Z,12.60
2023-09-09T05:45:37.714Z,13.93
2023-09-09T05:46:41.026Z,13.30
2023-09-09T05:47:42.793Z,13.20
2023-09-09T05:48:44.589Z,13.82
2023-09-09T05:49:46.517Z,12.50
2023-09-09T05:50:48.122Z,12.25
2023-09-09T05:51:49.671Z,12.68
2023-09-09T05:52:55.302Z,13.18
2023-09-09T05:53:59.626Z,11.93
2023-09-09T05:55:01.413Z,12.02
2023-09-09T05:56:03.652Z,12.90
2023-09-09T05:57:06.310Z,11.93
2023-09-09T05:58:08.068Z,12.32
2023-09-09T05:59:09.715Z,11.40
2023-09-09T06:00:12.286Z,12.48
2023-09-09T06:01:20.469Z,11.77
2023-09-09T06:02:23.588Z,12.98
2023-09-09T06:03:25.336Z,11.15
2023-09-09T06:04:28.892Z,11.38
2023-09-09T06:05:30.716Z,11.50
2023-09-09T06:06:32.378Z,11.13
2023-09-09T06:07:33.979Z,12.50
2023-09-09T06:08:35.712Z,11.90
2023-09-09T06:09:37.441Z,12.73
2023-09-09T06:10:39.252Z,12.25
2023-09-09T06:11:41.056Z,12.48
2023-09-09T06:12:42.773Z,12.82
2023-09-09T06:13:44.804Z,11.82
2023-09-09T06:14:46.387Z,11.77
2023-09-09T06:15:48.083Z,11.60
2023-09-09T06:16:49.957Z,11.45
2023-09-09T06:17:52.970Z,10.38
2023-09-09T06:18:54.630Z,11.63
2023-09-09T06:19:56.242Z,11.63
2023-09-09T06:20:58.250Z,11.93
2023-09-09T06:22:01.756Z,12.55
2023-09-09T06:24:05.918Z,10.27
2023-09-09T06:25:08.224Z,12.10
2023-09-09T06:26:10.020Z,11.32
2023-09-09T06:27:13.716Z,11.98
2023-09-09T06:28:15.788Z,12.40
2023-09-09T06:29:21.759Z,12.30
2023-09-09T06:30:23.444Z,12.75
2023-09-09T06:31:25.370Z,11.77
2023-09-09T06:32:27.242Z,11.25
2023-09-09T06:33:30.947Z,11.73
2023-09-09T06:34:32.644Z,12.90
2023-09-09T06:35:34.577Z,12.80
2023-09-09T06:36:36.252Z,11.82
2023-09-09T06:37:37.894Z,12.50
2023-09-09T06:38:39.583Z,11.70
2023-09-09T06:39:41.255Z,12.45
2023-09-09T06:40:45.046Z,12.10
2023-09-09T06:42:48.098Z,11.95
2023-09-09T06:43:51.416Z,11.75
2023-09-09T06:44:53.107Z,12.40
2023-09-09T06:45:54.804Z,11.63
2023-09-09T06:46:56.541Z,12.15
2023-09-09T06:47:58.289Z,11.60
2023-09-09T06:49:01.281Z,11.20
2023-09-09T06:50:03.011Z,10.95
2023-09-09T06:51:04.652Z,11.18
2023-09-09T06:52:06.983Z,11.43
2023-09-09T06:53:08.587Z,11.43
2023-09-09T06:54:12.268Z,11.23
2023-09-09T06:56:17.624Z,11.50
2023-09-09T06:57:19.193Z,10.85
2023-09-09T06:58:20.917Z,10.75
2023-09-09T06:59:22.597Z,11.30
2023-09-09T07:00:24.187Z,11.13
2023-09-09T07:01:25.845Z,11.50
2023-09-09T07:02:33.182Z,11.25
2023-09-09T07:03:38.693Z,11.68
2023-09-09T07:04:43.524Z,11.35
2023-09-09T07:05:45.695Z,11.20
2023-09-09T07:07:09.727Z,11.10
2023-09-09T07:08:12.491Z,10.57
2023-09-09T07:09:14.150Z,11.48
2023-09-09T07:10:15.781Z,11.35
2023-09-09T07:11:22.516Z,10.60
2023-09-09T07:12:24.218Z,11.05
2023-09-09T07:13:25.826Z,11.45
2023-09-09T07:14:29.444Z,11.48
2023-09-09T07:15:35.321Z,10.45
2023-09-09T07:16:39.833Z,10.93
2023-09-09T07:17:41.549Z,11.07
2023-09-09T07:18:43.201Z,11.45
2023-09-09T07:19:46.451Z,10.40
2023-09-09T07:20:48.313Z,11.38
2023-09-09T07:21:49.896Z,11.75
2023-09-09T07:22:51.499Z,11.48
2023-09-09T07:23:54.988Z,10.57
2023-09-09T07:24:59.658Z,10.77
2023-09-09T07:26:03.043Z,11.10
2023-09-09T07:27:07.114Z,10.80
2023-09-09T07:28:08.715Z,9.82
2023-09-09T07:29:10.279Z,10.68
2023-09-09T07:30:12.132Z,11.18
2023-09-09T07:31:13.828Z,10.55
2023-09-09T07:32:15.442Z,10.30
2023-09-09T07:33:17.168Z,10.63
2023-09-09T07:34:18.873Z,10.90
2023-09-09T07:35:21.833Z,9.95
2023-09-09T07:36:23.442Z,10.68
2023-09-09T07:37:26.411Z,10.55
2023-09-09T07:38:29.324Z,10.38
2023-09-09T07:39:30.934Z,11.32
2023-09-09T07:40:33.093Z,10.60
2023-09-09T07:41:34.843Z,10.40
2023-09-09T07:42:36.418Z,10.32
2023-09-09T07:43:38.442Z,10.10
2023-09-09T07:44:43.535Z,10.35
2023-09-09T07:45:47.518Z,10.00
2023-09-09T07:46:49.214Z,10.35
2023-09-09T07:47:50.887Z,10.65
2023-09-09T07:48:52.635Z,9.65
2023-09-09T07:49:54.299Z,10.65
2023-09-09T07:51:07.507Z,9.65
2023-09-09T07:52:09.101Z,9.38
2023-09-09T07:53:13.420Z,10.20
2023-09-09T07:54:15.453Z,10.23
2023-09-09T07:55:17.671Z,9.88
2023-09-09T07:56:19.317Z,9.93
2023-09-09T07:57:23.238Z,9.65
2023-09-09T07:58:24.841Z,10.52
2023-09-09T07:59:31.530Z,11.23
2023-09-09T08:00:33.357Z,10.60
2023-09-09T08:01:38.261Z,10.48
2023-09-09T08:02:40.214Z,10.43
2023-09-09T08:03:42.170Z,9.98
2023-09-09T08:04:46.468Z,11.18
2023-09-09T08:05:48.103Z,10.05
2023-09-09T08:06:54.414Z,10.38
2023-09-09T08:07:56.094Z,10.45
2023-09-09T08:08:58.928Z,9.02
2023-09-09T08:10:03.144Z,10.05
2023-09-09T08:11:04.851Z,9.77
2023-09-09T08:12:13.970Z,9.90
2023-09-09T08:13:50.187Z,8.82
2023-09-09T08:15:09.131Z,9.38
2023-09-09T08:16:14.548Z,9.65
2023-09-09T08:17:16.459Z,9.32
2023-09-09T08:18:21.131Z,9.20
2023-09-09T08:19:25.201Z,9.20
2023-09-09T08:20:28.899Z,9.10
2023-09-09T08:21:30.691Z,8.60
2023-09-09T08:22:33.912Z,9.63
2023-09-09T08:23:39.912Z,8.68
2023-09-09T08:24:41.733Z,9.32
2023-09-09T08:25:59.967Z,8.88
2023-09-09T08:27:05.521Z,8.80
2023-09-09T08:28:07.369Z,7.60
2023-09-09T08:29:09.590Z,9.55
2023-09-09T08:30:12.650Z,8.65
2023-09-09T08:31:16.378Z,8.25
2023-09-09T08:32:18.049Z,8.73
2023-09-09T08:33:21.641Z,8.70
2023-09-09T08:34:23.160Z,8.65
2023-09-09T08:35:26.320Z,9.18
2023-09-09T08:36:27.965Z,8.65
2023-09-09T08:37:29.590Z,8.30
2023-09-09T08:38:46.334Z,8.20
2023-09-09T08:39:54.606Z,8.70
2023-09-09T08:41:04.109Z,8.35
2023-09-09T08:42:14.178Z,8.43
2023-09-09T08:43:22.820Z,8.65
2023-09-09T08:44:32.855Z,9.43
2023-09-09T08:45:44.319Z,8.65
2023-09-09T08:46:46.485Z,8.13
2023-09-09T08:47:49.552Z,8.10
2023-09-09T08:48:53.737Z,7.88
2023-09-09T08:49:59.919Z,7.38
2023-09-09T08:51:04.937Z,7.93
2023-09-09T08:52:18.822Z,8.00
2023-09-09T08:53:31.782Z,7.13
2023-09-09T08:54:34.864Z,8.27
2023-09-09T08:55:39.331Z,8.30
2023-09-09T08:56:42.642Z,7.25
2023-09-09T08:57:44.755Z,7.68
2023-09-09T08:58:46.426Z,7.32
2023-09-09T08:59:49.195Z,7.63
2023-09-09T09:00:51.559Z,8.05
2023-09-09T09:01:54.351Z,8.40
2023-09-09T09:02:56.237Z,8.32
2023-09-09T09:03:59.446Z,7.95
2023-09-09T09:05:04.317Z,8.60
2023-09-09T09:06:06.742Z,7.80
2023-09-09T09:07:08.747Z,7.82
2023-09-09T09:08:11.453Z,7.75
2023-09-09T09:09:13.126Z,8.32
2023-09-09T09:10:19.471Z,8.75
2023-09-09T09:11:23.522Z,7.82
2023-09-09T09:12:26.646Z,8.25
2023-09-09T09:13:31.387Z,8.15
2023-09-09T09:14:33.364Z,8.52
2023-09-09T09:15:35.155Z,8.65
2023-09-09T09:16:39.840Z,8.65
2023-09-09T09:17:41.529Z,8.27
2023-09-09T09:18:44.609Z,7.97
2023-09-09T09:19:47.802Z,7.97
2023-09-09T09:20:49.582Z,7.88
2023-09-09T09:21:51.374Z,8.02
2023-09-09T09:22:58.550Z,8.80
2023-09-09T09:24:00.251Z,8.43
2023-09-09T09:25:01.837Z,9.20
2023-09-09T09:26:04.794Z,8.23
2023-09-09T09:27:10.050Z,8.48
2023-09-09T09:28:13.110Z,8.05
2023-09-09T09:29:14.754Z,8.70
2023-09-09T09:30:23.287Z,8.38
2023-09-09T09:31:26.550Z,8.93
2023-09-09T09:32:40.916Z,7.78
2023-09-09T09:33:42.840Z,7.60
2023-09-09T09:34:44.568Z,7.95
2023-09-09T09:35:49.210Z,8.27
2023-09-09T09:36:50.899Z,8.48
2023-09-09T09:37:54.769Z,8.48
2023-09-09T09:39:01.335Z,8.07
2023-09-09T09:40:05.131Z,8.27
2023-09-09T09:41:10.813Z,7.65
2023-09-09T09:42:14.910Z,7.03
2023-09-09T09:43:21.800Z,7.38
2023-09-09T09:44:23.509Z,7.53
2023-09-09T09:45:26.108Z,7.70
2023-09-09T09:46:27.838Z,7.45
2023-09-09T09:47:42.660Z,7.20
2023-09-09T09:48:45.208Z,7.38
2023-09-09T09:49:47.192Z,7.88
2023-09-09T09:50:52.803Z,7.55
2023-09-09T09:51:54.484Z,6.20
2023-09-09T09:52:57.337Z,6.53
2023-09-09T09:53:58.917Z,6.35
2023-09-09T09:55:00.833Z,6.28
2023-09-09T09:56:12.691Z,5.93
2023-09-09T09:57:14.397Z,5.47
2023-09-09T09:58:16.065Z,5.70
2023-09-09T09:59:28.184Z,5.40
2023-09-09T10:00:30.073Z,5.38
2023-09-09T10:01:32.358Z,5.30
2023-09-09T10:02:34.170Z,4.85
2023-09-09T10:03:49.264Z,4.80
2023-09-09T10:04:54.446Z,4.53
2023-09-09T10:05:56.405Z,4.35
2023-09-09T10:07:01.399Z,4.47
2023-09-09T10:08:12.612Z,4.43
2023-09-09T10:09:22.538Z,3.78
2023-09-09T10:10:27.620Z,4.32
2023-09-09T10:11:36.716Z,4.22
2023-09-09T10:12:49.032Z,4.22
2023-09-09T10:14:09.003Z,4.00
2023-09-09T10:15:13.013Z,4.35
2023-09-09T10:16:18.141Z,4.28
2023-09-09T10:17:23.590Z,4.15
2023-09-09T10:18:27.274Z,3.92
2023-09-09T10:19:29.883Z,4.40
2023-09-09T10:20:31.945Z,3.70
2023-09-09T10:21:42.016Z,4.00
2023-09-09T10:22:45.537Z,4.18
2023-09-09T10:23:48.324Z,3.92
2023-09-09T10:24:51.037Z,3.63
2023-09-09T10:25:54.277Z,4.00
2023-09-09T10:27:00.400Z,4.18
2023-09-09T10:28:02.237Z,4.43
2023-09-09T10:29:04.672Z,4.63
2023-09-09T10:30:08.968Z,4.38
2023-09-09T10:31:13.297Z,4.07
2023-09-09T10:32:16.169Z,4.50
2023-09-09T10:33:19.397Z,4.40
2023-09-09T10:34:22.623Z,4.32
2023-09-09T10:35:25.085Z,4.07
2023-09-09T10:36:28.243Z,4.65
2023-09-09T10:37:33.536Z,3.80
2023-09-09T10:38:35.367Z,4.10
2023-09-09T10:39:38.245Z,4.53
2023-09-09T10:40:40.471Z,4.32
2023-09-09T10:41:42.807Z,4.15
2023-09-09T10:42:46.705Z,3.80
2023-09-09T10:43:48.879Z,4.28
2023-09-09T10:44:50.742Z,4.22
2023-09-09T10:45:52.425Z,4.75
2023-09-09T10:46:57.078Z,4.63
2023-09-09T10:48:01.936Z,4.15
2023-09-09T10:49:05.647Z,3.90
2023-09-09T10:50:08.108Z,4.30
2023-09-09T10:51:12.738Z,4.30
2023-09-09T10:52:32.852Z,4.03
2023-09-09T10:53:34.478Z,4.40
2023-09-09T10:54:42.784Z,3.88
2023-09-09T10:55:45.673Z,4.22
2023-09-09T10:56:48.891Z,4.25
2023-09-09T10:57:58.959Z,4.22
2023-09-09T10:59:15.503Z,3.80
2023-09-09T11:00:37.297Z,3.90
2023-09-09T11:01:39.082Z,4.03
2023-09-09T11:02:46.449Z,3.90
2023-09-09T11:03:48.450Z,3.90
2023-09-09T11:04:58.829Z,3.72
2023-09-09T11:06:03.295Z,4.35
2023-09-09T11:07:07.616Z,3.80
2023-09-09T11:08:28.491Z,4.05
2023-09-09T11:09:32.785Z,3.92
2023-09-09T11:10:34.989Z,3.95
2023-09-09T11:11:37.255Z,4.68
2023-09-09T11:12:50.116Z,4.10
2023-09-09T11:14:00.712Z,4.43
2023-09-09T11:15:08.410Z,4.45
2023-09-09T11:16:31.767Z,4.35
2023-09-09T11:17:34.483Z,3.92
2023-09-09T11:18:36.802Z,3.80
2023-09-09T11:19:40.984Z,4.53
2023-09-09T11:20:43.298Z,3.95
2023-09-09T11:21:47.362Z,4.53
2023-09-09T11:22:49.360Z,5.07
2023-09-09T11:23:52.095Z,4.85
2023-09-09T11:24:54.486Z,4.35
2023-09-09T11:25:57.995Z,3.95
2023-09-09T11:28:02.362Z,4.60
2023-09-09T11:29:06.993Z,4.43
2023-09-09T11:30:12.068Z,4.28
2023-09-09T11:31:14.234Z,3.88
2023-09-09T11:32:24.184Z,4.15
2023-09-09T11:33:26.007Z,4.45
2023-09-09T11:34:31.566Z,4.00
2023-09-09T11:35:33.382Z,4.30
2023-09-09T11:36:35.244Z,4.50
2023-09-09T11:37:36.882Z,4.30
2023-09-09T11:38:38.614Z,4.28
2023-09-09T11:39:40.667Z,3.83
2023-09-09T11:40:42.371Z,4.50
2023-09-09T11:41:45.587Z,4.22
2023-09-09T11:42:53.341Z,4.43
2023-09-09T11:43:58.942Z,4.03
2023-09-09T11:45:03.253Z,4.30
2023-09-09T11:46:07.077Z,4.70
2023-09-09T11:47:09.105Z,4.53
2023-09-09T11:48:11.552Z,4.63
2023-09-09T11:49:14.557Z,4.40
2023-09-09T11:50:16.417Z,4.70
2023-09-09T11:51:19.619Z,4.90
2023-09-09T11:52:22.007Z,5.15
2023-09-09T11:53:23.842Z,4.60
2023-09-09T11:54:25.516Z,4.47
2023-09-09T11:55:27.134Z,4.53
2023-09-09T11:56:29.132Z,4.82
2023-09-09T11:57:30.789Z,4.30
2023-09-09T11:58:41.648Z,4.60
2023-09-09T11:59:44.066Z,4.30
2023-09-09T12:00:47.295Z,4.28
2023-09-09T12:01:49.326Z,4.55
2023-09-09T12:02:51.076Z,4.70
2023-09-09T12:04:04.706Z,4.72
2023-09-09T12:05:09.480Z,5.55
2023-09-09T12:06:12.296Z,4.70
2023-09-09T12:07:14.039Z,5.78
2023-09-09T12:08:15.781Z,4.97
2023-09-09T12:09:18.667Z,4.90
2023-09-09T12:10:20.602Z,5.22
2023-09-09T12:11:22.360Z,4.95
2023-09-09T12:12:24.660Z,5.05
2023-09-09T12:13:26.566Z,4.88
2023-09-09T12:14:28.366Z,5.07
2023-09-09T12:15:30.524Z,5.30
2023-09-09T12:16:35.613Z,4.80
2023-09-09T12:17:38.318Z,4.60
2023-09-09T12:18:39.957Z,5.03
2023-09-09T12:19:41.546Z,4.15
2023-09-09T12:20:59.394Z,5.03
2023-09-09T12:22:01.061Z,4.55
2023-09-09T12:23:02.782Z,4.53
2023-09-09T12:24:05.212Z,4.95
2023-09-09T12:25:27.912Z,4.75
2023-09-09T12:26:30.279Z,4.55
2023-09-09T12:27:42.100Z,4.88
2023-09-09T12:28:46.364Z,5.22
2023-09-09T12:29:48.056Z,4.57
2023-09-09T12:30:51.197Z,5.07
2023-09-09T12:31:55.606Z,4.68
2023-09-09T12:32:57.569Z,4.90
2023-09-09T12:34:01.952Z,4.65
2023-09-09T12:35:09.699Z,4.78
2023-09-09T12:36:15.901Z,4.80
2023-09-09T12:37:20.127Z,4.70
2023-09-09T12:38:21.834Z,4.70
2023-09-09T12:39:24.273Z,4.85
2023-09-09T12:40:25.865Z,5.05
2023-09-09T12:41:27.510Z,4.45
2023-09-09T12:42:29.435Z,5.07
2023-09-09T12:43:31.484Z,4.60
2023-09-09T12:44:33.828Z,4.38
2023-09-09T12:45:35.513Z,4.72
2023-09-09T12:46:37.189Z,5.20
2023-09-09T12:47:40.374Z,4.78
2023-09-09T12:48:52.518Z,5.05
2023-09-09T12:49:54.283Z,4.60
2023-09-09T12:50:56.321Z,5.10
2023-09-09T12:51:57.935Z,4.50
2023-09-09T12:52:59.686Z,5.20
2023-09-09T12:54:01.320Z,4.85
2023-09-09T12:55:03.109Z,4.55
2023-09-09T12:56:07.654Z,4.85
2023-09-09T12:57:09.530Z,4.20
2023-09-09T12:58:11.210Z,5.30
2023-09-09T12:59:12.830Z,4.82
2023-09-09T13:00:15.751Z,4.97
2023-09-09T13:01:18.227Z,4.40
2023-09-09T13:02:20.021Z,5.60
2023-09-09T13:03:23.370Z,5.03
2023-09-09T13:05:27.532Z,4.85
2023-09-09T13:06:29.268Z,4.50
2023-09-09T13:07:31.018Z,5.70
2023-09-09T13:08:32.667Z,4.78
2023-09-09T13:09:34.298Z,5.22
2023-09-09T13:10:36.039Z,4.80
2023-09-09T13:11:37.717Z,4.97
2023-09-09T13:12:39.404Z,5.38
2023-09-09T13:13:41.180Z,5.13
2023-09-09T13:14:43.148Z,5.35
2023-09-09T13:15:44.855Z,4.70
2023-09-09T13:16:46.603Z,5.20
2023-09-09T13:17:48.243Z,5.10
2023-09-09T13:18:51.154Z,4.95
2023-09-09T13:19:52.869Z,4.85
2023-09-09T13:20:54.489Z,4.90
2023-09-09T13:21:56.276Z,4.53
2023-09-09T13:22:58.259Z,4.75
2023-09-09T13:23:59.823Z,4.63
2023-09-09T13:25:01.428Z,4.82
2023-09-09T13:26:03.028Z,5.28
2023-09-09T13:27:04.961Z,4.65
2023-09-09T13:28:07.451Z,5.13
2023-09-09T13:29:09.198Z,4.82
2023-09-09T13:30:11.419Z,4.95
2023-09-09T13:31:13.263Z,5.18
2023-09-09T13:32:15.054Z,5.00
2023-09-09T13:33:16.760Z,5.03
2023-09-09T13:34:19.825Z,4.82
2023-09-09T13:35:21.483Z,4.82
2023-09-09T13:36:23.109Z,4.80
2023-09-09T13:37:24.717Z,5.18
2023-09-09T13:38:28.782Z,4.72
2023-09-09T13:39:31.537Z,4.80
2023-09-09T13:40:34.122Z,5.80
2023-09-09T13:41:35.760Z,4.60
2023-09-09T13:42:37.403Z,5.40
2023-09-09T13:43:39.308Z,5.10
2023-09-09T13:44:48.943Z,4.90
2023-09-09T13:46:02.542Z,4.90
2023-09-09T13:47:04.593Z,4.68
2023-09-09T13:48:06.662Z,4.85
2023-09-09T13:49:08.496Z,4.72
2023-09-09T13:50:12.100Z,5.22
2023-09-09T13:51:13.756Z,4.70
2023-09-09T13:52:15.374Z,5.00